Time;durP1;ratioP1;P1;durP2;ratioP2;P2;SDS_P1;SDS_P2;PMS_P1;PMS_P2;Temp;Humidity;BMP_temperature;BMP_pressure;BME280_temperature;BME280_humidity;BME280_pressure;Samples;Min_cycle;Max_cycle;Signal;HPM_P1;HPM_P2
2023/12/20 00:01:50;;;;;;;9.88;6.43;;;;;;;8.42;78.10;101872.84;4973460;28;19925;-84
2023/12/20 00:04:16;;;;;;;10.27;6.72;;;;;;;8.55;77.83;101902.59;4989451;28;20098;-83
2023/12/20 00:06:41;;;;;;;9.05;6.20;;;;;;;8.46;78.43;101893.13;4974168;28;20129;-84
2023/12/20 00:09:07;;;;;;;9.48;6.57;;;;;;;8.53;77.98;101895.47;4988683;28;20036;-83
2023/12/20 00:11:33;;;;;;;9.02;6.00;;;;;;;8.55;78.00;101904.28;4978619;28;20065;-83
2023/12/20 00:13:58;;;;;;;9.82;6.55;;;;;;;8.59;77.87;101902.84;4991332;28;20068;-83
2023/12/20 00:16:24;;;;;;;9.07;5.88;;;;;;;8.33;77.78;101863.47;4970597;28;20130;-83
2023/12/20 00:18:57;;;;;;;10.75;6.60;;;;;;;8.64;77.66;101912.84;4982860;28;20042;-82
2023/12/20 00:21:23;;;;;;;9.90;6.05;;;;;;;8.30;77.85;101849.34;4970697;28;20093;-83
2023/12/20 00:23:49;;;;;;;9.93;6.50;;;;;;;8.68;77.84;101922.72;4979503;28;20042;-84
2023/12/20 00:26:15;;;;;;;9.50;6.47;;;;;;;8.08;77.98;101812.84;4972777;28;20026;-84
2023/12/20 00:28:40;;;;;;;8.57;5.80;;;;;;;8.67;77.75;101905.25;4985190;28;20153;-84
2023/12/20 00:31:06;;;;;;;9.20;6.20;;;;;;;8.37;78.06;101867.25;4968282;28;20058;-85
2023/12/20 00:33:32;;;;;;;10.07;6.35;;;;;;;8.69;77.86;101911.50;4986659;28;20487;-84
2023/12/20 00:35:57;;;;;;;10.07;6.53;;;;;;;8.13;77.69;101811.53;4989988;28;20074;-83
2023/12/20 00:38:23;;;;;;;9.93;6.47;;;;;;;8.53;78.14;101888.56;4990043;28;20030;-84
2023/12/20 00:40:49;;;;;;;9.20;6.38;;;;;;;8.37;77.95;101856.84;4979359;28;20030;-84
2023/12/20 00:43:16;;;;;;;9.25;6.15;;;;;;;8.47;78.06;101880.25;4976425;28;20054;-85
2023/12/20 00:45:43;;;;;;;10.07;6.32;;;;;;;8.51;77.84;101871.00;4971966;28;20121;-83
2023/12/20 00:48:08;;;;;;;9.27;6.25;;;;;;;8.48;78.25;101869.03;4987103;28;20027;-83
2023/12/20 00:50:34;;;;;;;9.93;6.40;;;;;;;8.36;77.97;101832.50;4986594;28;20709;-84
2023/12/20 00:52:59;;;;;;;8.13;6.00;;;;;;;8.66;77.63;101881.72;4984334;28;20033;-82
2023/12/20 00:55:25;;;;;;;8.93;6.05;;;;;;;8.67;77.90;101873.13;4981270;28;20034;-85
2023/12/20 00:57:52;;;;;;;9.10;6.32;;;;;;;8.64;78.37;101881.59;4989860;28;20092;-84
2023/12/20 01:00:18;;;;;;;8.45;6.15;;;;;;;8.18;78.17;101791.09;4980589;28;20421;-85
2023/12/20 01:02:43;;;;;;;9.70;6.38;;;;;;;8.65;78.14;101870.38;4990701;28;20041;-84
2023/12/20 01:05:09;;;;;;;8.10;6.03;;;;;;;8.49;77.85;101830.91;4971221;28;20027;-84
2023/12/20 01:07:35;;;;;;;8.60;5.97;;;;;;;8.54;78.29;101837.38;4984602;28;20042;-84
2023/12/20 01:10:01;;;;;;;9.82;6.65;;;;;;;8.48;78.05;101816.97;4988491;28;20245;-84
2023/12/20 01:12:27;;;;;;;9.20;6.00;;;;;;;8.27;78.20;101787.50;4976508;28;20062;-85
2023/12/20 01:14:52;;;;;;;8.23;5.45;;;;;;;8.66;77.92;101842.69;4989619;28;20034;-85
2023/12/20 01:17:18;;;;;;;7.90;5.53;;;;;;;8.25;77.89;101769.97;4977398;28;20102;-85
2023/12/20 01:19:44;;;;;;;9.43;6.22;;;;;;;8.49;77.67;101800.59;4983453;28;20031;-85
2023/12/20 01:22:09;;;;;;;9.18;6.20;;;;;;;8.50;77.97;101796.28;4971242;28;20026;-84
2023/12/20 01:24:35;;;;;;;9.38;6.25;;;;;;;8.52;78.07;101797.31;4974127;28;20031;-85
2023/12/20 01:27:01;;;;;;;8.10;5.93;;;;;;;8.45;77.75;101782.00;4970518;28;20457;-84
2023/12/20 01:29:26;;;;;;;9.10;6.10;;;;;;;8.16;78.16;101723.31;4978569;28;20058;-85
2023/12/20 01:31:52;;;;;;;8.25;5.70;;;;;;;8.45;78.00;101769.00;4985732;28;20034;-84
2023/12/20 01:34:18;;;;;;;8.68;5.80;;;;;;;8.46;77.92;101770.78;4980125;28;20052;-85
2023/12/20 01:36:44;;;;;;;9.45;6.07;;;;;;;8.42;78.07;101759.22;4982107;28;20030;-85
2023/12/20 01:39:10;;;;;;;8.85;6.00;;;;;;;8.39;77.74;101756.34;4980452;28;20470;-85
2023/12/20 01:41:35;;;;;;;9.85;5.97;;;;;;;8.69;77.82;101798.63;4974564;28;20121;-85
2023/12/20 01:44:01;;;;;;;9.65;5.93;;;;;;;8.42;77.94;101767.03;4990635;28;20038;-85
2023/12/20 01:46:27;;;;;;;8.85;5.97;;;;;;;8.32;77.80;101739.34;4975681;28;20038;-85
2023/12/20 01:48:52;;;;;;;8.10;5.47;;;;;;;8.45;77.96;101771.59;4977890;28;20070;-84
2023/12/20 01:51:19;;;;;;;8.85;6.28;;;;;;;8.36;78.03;101750.94;4983902;28;20042;-85
2023/12/20 01:53:45;;;;;;;8.20;5.95;;;;;;;8.67;77.91;101802.81;4987908;28;20051;-84
2023/12/20 01:56:11;;;;;;;9.38;6.22;;;;;;;8.51;77.53;101759.97;4974213;28;20039;-84
2023/12/20 01:58:45;;;;;;;7.90;5.57;;;;;;;8.67;77.94;101793.28;4976235;28;20078;-85
2023/12/20 02:01:11;;;;;;;8.48;5.63;;;;;;;8.57;77.80;101780.34;4975271;28;20058;-84
2023/12/20 02:03:36;;;;;;;;;;;;;;;8.68;77.61;101784.72;4982384;28;20030;-85
2023/12/20 02:06:03;;;;;;;7.93;5.75;;;;;;;8.51;77.90;101764.28;4987541;28;19921;-85
2023/12/20 02:08:29;;;;;;;8.70;5.30;;;;;;;8.49;78.03;101760.63;4989126;28;20019;-84
2023/12/20 02:10:56;;;;;;;9.80;5.90;;;;;;;8.46;77.83;101750.88;4986904;28;20025;-84
2023/12/20 02:13:21;;;;;;;8.15;5.75;;;;;;;8.62;78.14;101772.91;4970780;28;20039;-84
2023/12/20 02:15:47;;;;;;;8.32;5.57;;;;;;;8.36;77.94;101728.41;4984418;28;20031;-85
2023/12/20 02:18:15;;;;;;;7.90;5.93;;;;;;;8.57;77.71;101762.13;4982129;28;20041;-83
2023/12/20 02:20:41;;;;;;;8.27;5.65;;;;;;;8.06;77.60;101658.34;4977148;28;20142;-83
2023/12/20 02:23:07;;;;;;;7.30;5.75;;;;;;;8.31;77.69;101706.28;4982386;28;20038;-84
2023/12/20 02:25:32;;;;;;;8.50;6.10;;;;;;;8.67;77.67;101756.84;4989321;28;20434;-84
2023/12/20 02:27:58;;;;;;;8.50;5.95;;;;;;;8.50;77.53;101734.69;4988655;28;20030;-83
2023/12/20 02:30:24;;;;;;;9.23;6.22;;;;;;;8.53;77.91;101744.47;4984839;28;20046;-83
2023/12/20 02:32:50;;;;;;;8.20;5.97;;;;;;;8.55;77.99;101755.88;4992947;28;20493;-84
2023/12/20 02:35:15;;;;;;;8.90;6.07;;;;;;;8.04;77.78;101650.41;4985748;28;20084;-84
2023/12/20 02:37:41;;;;;;;8.32;5.68;;;;;;;8.47;77.79;101726.66;4978259;28;20046;-84
2023/12/20 02:40:07;;;;;;;7.63;5.80;;;;;;;8.44;78.04;101721.19;4986381;28;20033;-85
2023/12/20 02:42:33;;;;;;;8.30;5.93;;;;;;;8.49;77.90;101738.09;4968345;28;20069;-85
2023/12/20 02:44:59;;;;;;;7.90;5.65;;;;;;;8.47;77.74;101728.38;4990382;28;20054;-85
2023/12/20 02:47:24;;;;;;;7.88;6.10;;;;;;;8.56;77.94;101745.59;4992862;28;20479;-84
2023/12/20 02:49:50;;;;;;;9.95;6.63;;;;;;;8.13;77.71;101658.06;4974706;28;20022;-84
2023/12/20 02:52:16;;;;;;;7.90;5.78;;;;;;;8.40;77.85;101695.69;4981195;28;20037;-85
2023/12/20 02:54:41;;;;;;;8.65;5.82;;;;;;;8.36;77.74;101689.38;4984098;28;20493;-84
2023/12/20 02:57:07;;;;;;;9.68;6.85;;;;;;;8.21;77.67;101669.94;4985227;28;20039;-84
2023/12/20 02:59:33;;;;;;;8.90;5.97;;;;;;;8.07;77.88;101639.38;4984965;28;20072;-84
2023/12/20 03:01:59;;;;;;;7.85;5.35;;;;;;;8.42;77.91;101695.84;4981236;28;20042;-84
2023/12/20 03:04:25;;;;;;;8.10;5.80;;;;;;;8.52;77.95;101719.22;4977393;28;20030;-85
2023/12/20 03:06:51;;;;;;;8.50;5.85;;;;;;;8.57;77.87;101728.28;4991705;28;20097;-84
2023/12/20 03:09:16;;;;;;;8.52;5.90;;;;;;;8.44;78.12;101700.38;4978790;28;20026;-84
2023/12/20 03:11:42;;;;;;;8.60;6.32;;;;;;;8.55;78.07;101715.16;4991376;28;20035;-84
2023/12/20 03:14:08;;;;;;;8.30;5.93;;;;;;;8.42;78.02;101695.84;4990049;28;20023;-84
2023/12/20 03:16:33;;;;;;;7.93;5.82;;;;;;;8.40;78.16;101689.59;4981374;28;20043;-85
2023/12/20 03:18:59;;;;;;;8.60;5.63;;;;;;;8.59;77.95;101723.19;4975403;28;20050;-85
2023/12/20 03:21:24;;;;;;;7.85;5.70;;;;;;;8.35;78.13;101691.84;4989815;28;20030;-85
2023/12/20 03:23:51;;;;;;;7.15;5.13;;;;;;;8.50;77.72;101705.16;4990297;28;20026;-85
2023/12/20 03:26:16;;;;;;;7.47;5.20;;;;;;;8.06;77.80;101634.94;4981789;28;20114;-85
2023/12/20 03:28:42;;;;;;;7.68;5.43;;;;;;;8.51;77.84;101707.91;4975439;28;20106;-86
2023/12/20 03:31:09;;;;;;;7.70;5.47;;;;;;;8.25;77.88;101658.09;4974589;28;20085;-84
2023/12/20 03:33:35;;;;;;;8.18;5.63;;;;;;;8.44;77.39;101683.88;4976687;28;20142;-84
2023/12/20 03:36:01;;;;;;;6.97;5.13;;;;;;;8.55;77.54;101696.94;4972785;28;20067;-84
2023/12/20 03:38:26;;;;;;;7.45;5.65;;;;;;;8.46;77.77;101691.00;4990358;28;20516;-84
2023/12/20 03:40:52;;;;;;;8.15;5.40;;;;;;;8.40;78.09;101668.75;4991520;28;20041;-84
2023/12/20 03:43:17;;;;;;;7.70;5.75;;;;;;;8.52;78.05;101686.28;4984759;28;20026;-85
2023/12/20 03:45:43;;;;;;;8.00;5.40;;;;;;;8.45;78.16;101680.50;4979604;28;20034;-84
2023/12/20 03:48:09;;;;;;;7.22;5.30;;;;;;;8.05;78.21;101613.22;4972466;28;20034;-86
2023/12/20 03:50:35;;;;;;;7.30;5.20;;;;;;;8.19;77.98;101622.09;4979843;28;20043;-86
2023/12/20 03:53:01;;;;;;;7.80;5.35;;;;;;;8.45;78.18;101676.19;4979564;28;20034;-85
2023/12/20 03:55:26;;;;;;;7.60;5.47;;;;;;;8.30;78.05;101649.84;4974101;28;20529;-86
2023/12/20 03:57:52;;;;;;;8.15;5.50;;;;;;;8.38;77.68;101649.53;4976829;28;20557;-86
2023/12/20 04:00:18;;;;;;;7.63;5.57;;;;;;;8.52;78.09;101665.44;4984296;28;20103;-85
2023/12/20 04:02:44;;;;;;;7.55;5.35;;;;;;;8.55;77.85;101681.31;4988680;28;20058;-84
2023/12/20 04:05:10;;;;;;;7.03;4.95;;;;;;;8.27;77.70;101627.88;4985371;28;20054;-84
2023/12/20 04:07:36;;;;;;;7.75;5.30;;;;;;;8.41;77.71;101657.63;4975932;28;20069;-85
2023/12/20 04:10:03;;;;;;;;;;;;;;;8.61;77.67;101686.06;4972094;28;20110;-85
2023/12/20 04:12:29;;;;;;;8.95;5.50;;;;;;;8.52;78.09;101674.97;4981287;28;19936;-84
2023/12/20 04:14:55;;;;;;;7.30;5.55;;;;;;;8.32;77.80;101649.97;4988706;28;20088;-85
2023/12/20 04:17:22;;;;;;;8.43;5.43;;;;;;;8.46;77.88;101658.88;4965912;28;20030;-85
2023/12/20 04:19:49;;;;;;;8.05;5.68;;;;;;;8.33;77.81;101629.25;4980447;28;20034;-84
2023/12/20 04:22:15;;;;;;;8.77;5.68;;;;;;;8.13;77.59;101599.13;4987554;28;20030;-84
2023/12/20 04:24:42;;;;;;;7.60;5.47;;;;;;;8.48;77.82;101660.78;4965916;28;20513;-85
2023/12/20 04:27:08;;;;;;;9.13;5.65;;;;;;;8.15;77.75;101602.75;4973358;28;20502;-84
2023/12/20 04:29:34;;;;;;;8.45;5.57;;;;;;;8.46;77.94;101651.06;4980337;28;20541;-83
2023/12/20 04:32:00;;;;;;;8.23;5.80;;;;;;;8.56;77.69;101658.78;4981946;28;20031;-84
2023/12/20 04:34:26;;;;;;;9.07;6.18;;;;;;;8.54;77.89;101663.88;4982925;28;20045;-85
2023/12/20 04:36:51;;;;;;;8.30;5.45;;;;;;;8.53;77.93;101669.88;4969839;28;20034;-84
2023/12/20 04:39:17;;;;;;;8.50;5.63;;;;;;;8.43;78.06;101649.13;4981475;28;20109;-84
2023/12/20 04:41:43;;;;;;;8.05;5.60;;;;;;;8.49;77.81;101657.41;4977013;28;20502;-84
2023/12/20 04:44:08;;;;;;;10.15;7.00;;;;;;;8.49;77.95;101664.31;4978628;28;20555;-84
2023/12/20 04:46:34;;;;;;;9.07;6.32;;;;;;;8.34;77.98;101645.81;4989584;28;20573;-84
2023/12/20 04:49:00;;;;;;;7.50;5.82;;;;;;;8.55;77.65;101678.72;4989872;28;20027;-84
2023/12/20 04:51:26;;;;;;;7.32;5.88;;;;;;;8.52;77.76;101664.53;4989207;28;20038;-84
2023/12/20 04:53:51;;;;;;;7.72;5.55;;;;;;;8.42;77.90;101652.50;4983916;28;20079;-85
2023/12/20 04:56:17;;;;;;;7.72;5.78;;;;;;;8.19;77.97;101609.09;4988458;28;20057;-85
2023/12/20 04:58:43;;;;;;;7.97;5.88;;;;;;;8.07;77.74;101582.13;4990920;28;20034;-85
2023/12/20 05:01:09;;;;;;;6.88;5.47;;;;;;;8.17;77.98;101589.88;4985910;28;20034;-85
2023/12/20 05:03:35;;;;;;;6.50;5.13;;;;;;;8.53;78.10;101649.06;4983629;28;20168;-84
2023/12/20 05:06:01;;;;;;;;;;;;;;;8.58;77.77;101643.28;4988294;28;20037;-85
2023/12/20 05:08:26;;;;;;;8.52;5.85;;;;;;;8.38;77.69;101605.28;4981375;28;20316;-84
2023/12/20 05:10:55;;;;;;;8.23;5.80;;;;;;;8.54;77.63;101635.22;4974551;28;20033;-84
2023/12/20 05:13:21;;;;;;;7.82;5.80;;;;;;;8.48;77.66;101619.13;4975118;28;20042;-85
2023/12/20 05:15:47;;;;;;;8.38;6.07;;;;;;;8.42;77.76;101616.06;4974140;28;20429;-85
2023/12/20 05:18:13;;;;;;;9.20;6.43;;;;;;;8.25;77.60;101580.91;4961708;28;20050;-85
2023/12/20 05:20:39;;;;;;;9.48;6.60;;;;;;;8.48;77.76;101626.06;4976591;28;20036;-85
2023/12/20 05:23:05;;;;;;;7.90;5.55;;;;;;;8.42;77.70;101604.75;4982361;28;20042;-84
2023/12/20 05:25:31;;;;;;;8.88;6.40;;;;;;;8.53;77.73;101625.63;4985863;28;20026;-84
2023/12/20 05:27:56;;;;;;;8.30;5.97;;;;;;;8.33;77.87;101594.53;4975700;28;20681;-83
2023/12/20 05:30:22;;;;;;;8.45;6.40;;;;;;;8.24;78.07;101570.41;4976829;28;20049;-84
2023/12/20 05:32:48;;;;;;;9.60;6.57;;;;;;;8.50;77.68;101617.56;4976500;28;20042;-84
2023/12/20 05:35:15;;;;;;;8.82;6.53;;;;;;;8.48;77.45;101597.41;4981066;28;20029;-84
2023/12/20 05:37:41;;;;;;;8.75;6.03;;;;;;;8.34;77.94;101586.84;4972724;28;20078;-84
2023/12/20 05:40:10;;;;;;;8.65;6.20;;;;;;;8.28;77.76;101577.66;4978691;28;20081;-84
2023/12/20 05:42:36;;;;;;;9.43;6.28;;;;;;;8.48;78.01;101616.53;4981742;28;20130;-84
2023/12/20 05:45:02;;;;;;;7.70;5.50;;;;;;;8.35;77.84;101596.44;4978162;28;20041;-85
2023/12/20 05:47:28;;;;;;;8.90;6.28;;;;;;;8.00;77.81;101533.94;4973712;28;20034;-85
2023/12/20 05:49:54;;;;;;;9.13;6.40;;;;;;;8.43;78.05;101607.50;4982685;28;20121;-85
2023/12/20 05:52:19;;;;;;;8.70;6.10;;;;;;;8.36;77.74;101597.38;4979109;28;20062;-83
2023/12/20 05:54:45;;;;;;;8.30;5.75;;;;;;;8.13;77.49;101560.09;4984484;28;20587;-84
2023/12/20 05:57:11;;;;;;;8.07;6.10;;;;;;;8.50;77.85;101627.97;4980444;28;20031;-85
2023/12/20 05:59:36;;;;;;;8.70;5.90;;;;;;;8.27;77.56;101589.75;4973305;28;20035;-85
2023/12/20 06:02:04;;;;;;;8.93;6.38;;;;;;;8.45;77.65;101631.94;4983275;28;20030;-83
2023/12/20 06:04:29;;;;;;;9.07;6.70;;;;;;;8.35;77.74;101614.66;4973061;28;20031;-83
2023/12/20 06:06:55;;;;;;;7.90;5.93;;;;;;;8.37;77.66;101614.78;4976285;28;20030;-83
2023/12/20 06:09:21;;;;;;;8.73;5.88;;;;;;;8.48;77.81;101637.34;4977931;28;20042;-83
2023/12/20 06:11:47;;;;;;;9.13;6.50;;;;;;;8.14;77.66;101569.69;4977477;28;20077;-90
2023/12/20 06:14:12;;;;;;;8.95;6.20;;;;;;;8.42;78.09;101629.06;4979383;28;20046;-83
2023/12/20 06:16:38;;;;;;;9.85;6.30;;;;;;;8.29;77.99;101608.09;4984616;28;20088;-82
2023/12/20 06:19:03;;;;;;;9.68;5.80;;;;;;;8.31;78.15;101614.31;4986935;28;20117;-84
2023/12/20 06:21:29;;;;;;;7.25;5.50;;;;;;;8.16;77.72;101572.41;4983071;28;20109;-83
2023/12/20 06:23:55;;;;;;;8.85;6.13;;;;;;;8.42;78.09;101629.06;4984651;28;20062;-83
2023/12/20 06:26:20;;;;;;;8.27;6.03;;;;;;;8.35;77.73;101604.25;4981027;28;20035;-83
2023/12/20 06:28:46;;;;;;;8.15;5.57;;;;;;;8.21;77.87;101583.16;4981611;28;20031;-82
2023/12/20 06:31:12;;;;;;;9.10;6.00;;;;;;;8.44;77.80;101614.50;4969432;28;20058;-83
2023/12/20 06:33:40;;;;;;;8.52;5.97;;;;;;;8.39;77.80;101607.09;4983864;28;20038;-83
2023/12/20 06:36:06;;;;;;;7.13;5.55;;;;;;;8.35;78.06;101608.56;4977506;28;20029;-83
2023/12/20 06:38:32;;;;;;;9.68;6.55;;;;;;;8.45;78.10;101618.91;4982487;28;20030;-84
2023/12/20 06:40:58;;;;;;;9.52;6.78;;;;;;;8.31;77.94;101597.00;4980531;28;20046;-84
2023/12/20 06:43:24;;;;;;;9.05;6.20;;;;;;;8.38;77.52;101606.19;4985106;28;20038;-84
2023/12/20 06:45:50;;;;;;;9.90;6.72;;;;;;;8.45;78.02;101621.53;4982830;28;20042;-82
2023/12/20 06:48:16;;;;;;;9.95;6.28;;;;;;;8.33;78.06;101604.94;4986815;28;20058;-82
2023/12/20 06:50:42;;;;;;;8.98;5.97;;;;;;;8.41;78.03;101608.16;4987439;28;20124;-84
2023/12/20 06:53:08;;;;;;;8.95;6.13;;;;;;;8.19;78.19;101570.06;4976539;28;20038;-84
2023/12/20 06:55:36;;;;;;;11.48;6.80;;;;;;;8.42;77.83;101609.97;4981098;28;20047;-82
2023/12/20 06:58:02;;;;;;;9.90;6.53;;;;;;;8.02;78.06;101539.22;4977228;28;20042;-82
2023/12/20 07:00:28;;;;;;;;;;;;;;;8.48;77.84;101610.44;4978887;28;20512;-84
2023/12/20 07:02:53;;;;;;;8.68;5.93;;;;;;;8.25;78.04;101573.13;4990017;28;19922;-83
2023/12/20 07:05:19;;;;;;;9.98;6.90;;;;;;;7.87;78.01;101505.16;4980800;28;20121;-83
2023/12/20 07:07:46;;;;;;;8.93;6.43;;;;;;;8.41;78.10;101603.84;4986332;28;20118;-81
2023/12/20 07:10:13;;;;;;;9.68;6.72;;;;;;;8.40;78.21;101595.91;4977236;28;20026;-81
2023/12/20 07:12:38;;;;;;;;;;;;;;;8.43;78.34;101596.19;4982021;28;20030;-83
2023/12/20 07:15:05;;;;;;;10.00;6.78;;;;;;;8.09;78.25;101533.72;4978034;28;19948;-85
2023/12/20 07:17:33;;;;;;;9.63;6.53;;;;;;;8.38;78.51;101592.25;4983302;28;20031;-83
2023/12/20 07:19:58;;;;;;;9.38;6.63;;;;;;;8.40;78.33;101588.97;4973657;28;20100;-84
2023/12/20 07:22:24;;;;;;;9.60;7.00;;;;;;;8.40;78.27;101585.47;4978861;28;20038;-84
2023/12/20 07:24:52;;;;;;;9.98;6.90;;;;;;;8.03;78.50;101522.84;4981089;28;20037;-83
2023/12/20 07:27:20;;;;;;;11.50;7.28;;;;;;;7.85;78.43;101489.47;4973169;28;20947;-83
2023/12/20 07:29:45;;;;;;;10.57;7.13;;;;;;;8.21;78.44;101551.94;4980237;28;20046;-83
2023/12/20 07:32:11;;;;;;;10.95;7.35;;;;;;;8.06;78.10;101521.38;4984304;28;20042;-83
2023/12/20 07:34:37;;;;;;;11.27;7.80;;;;;;;7.72;78.50;101465.88;4976725;28;20070;-84
2023/12/20 07:37:02;;;;;;;12.30;8.18;;;;;;;8.18;78.10;101530.91;4980782;28;20035;-85
2023/12/20 07:39:28;;;;;;;12.13;7.35;;;;;;;7.95;77.83;101475.44;4977415;28;20042;-87
2023/12/20 07:41:54;;;;;;;11.05;7.50;;;;;;;8.23;78.10;101522.66;4969859;28;20092;-86
2023/12/20 07:44:23;;;;;;;10.50;7.43;;;;;;;8.42;78.37;101551.00;4984627;28;20035;-81
2023/12/20 07:46:49;;;;;;;11.80;7.68;;;;;;;8.34;78.43;101533.91;4979881;28;20109;-85
2023/12/20 07:49:14;;;;;;;11.15;7.65;;;;;;;8.25;78.53;101522.78;4979867;28;20038;-84
2023/12/20 07:51:40;;;;;;;12.23;7.75;;;;;;;8.08;78.55;101488.59;4977477;28;20081;-84
2023/12/20 07:54:07;;;;;;;11.93;8.07;;;;;;;8.01;78.36;101475.03;4984190;28;20029;-84
2023/12/20 07:56:33;;;;;;;12.65;8.00;;;;;;;8.42;78.37;101547.50;4981374;28;20121;-84
2023/12/20 07:58:59;;;;;;;12.68;8.23;;;;;;;7.94;78.38;101456.34;4982684;28;20105;-84
2023/12/20 08:01:25;;;;;;;12.25;7.93;;;;;;;8.20;78.34;101506.81;4975115;28;20035;-83
2023/12/20 08:03:50;;;;;;;13.98;8.10;;;;;;;8.12;78.56;101492.34;4968364;28;20036;-82
2023/12/20 08:06:17;;;;;;;12.45;8.18;;;;;;;8.17;78.28;101488.41;4982431;28;20121;-83
2023/12/20 08:08:43;;;;;;;11.60;8.30;;;;;;;8.30;78.46;101511.03;4990267;28;20042;-82
2023/12/20 08:11:08;;;;;;;12.05;8.07;;;;;;;8.21;78.56;101502.53;4982271;28;20041;-83
2023/12/20 08:13:34;;;;;;;11.55;7.65;;;;;;;8.13;78.63;101476.84;4974881;28;20031;-81
2023/12/20 08:16:02;;;;;;;15.15;8.63;;;;;;;8.33;78.53;101506.03;4980430;28;20122;-83
2023/12/20 08:18:28;;;;;;;12.48;8.30;;;;;;;8.13;78.39;101474.25;4991300;28;20034;-81
2023/12/20 08:20:53;;;;;;;16.08;8.27;;;;;;;8.32;78.38;101488.63;4988554;28;20088;-82
2023/12/20 08:23:20;;;;;;;12.35;8.27;;;;;;;8.29;78.24;101477.97;4983052;28;20027;-82
2023/12/20 08:25:49;;;;;;;13.73;8.05;;;;;;;8.43;78.63;101505.97;4970774;28;20031;-84
2023/12/20 08:28:15;;;;;;;14.88;8.15;;;;;;;8.26;78.59;101470.84;4989634;28;20178;-84
2023/12/20 08:30:41;;;;;;;;;;;;;;;8.54;78.26;101509.38;4986188;28;20057;-85
2023/12/20 08:33:12;;;;;;;12.30;7.82;;;;;;;8.21;78.74;101448.78;4979370;28;19917;-84
2023/12/20 08:35:41;;;;;;;11.13;7.55;;;;;;;8.20;78.39;101427.88;4977850;28;20179;-85
2023/12/20 08:38:07;;;;;;;11.65;7.47;;;;;;;8.47;78.51;101476.78;4976291;28;20035;-85
2023/12/20 08:40:32;;;;;;;11.70;7.38;;;;;;;8.13;78.67;101405.72;4978500;28;20176;-85
2023/12/20 08:42:58;;;;;;;11.57;7.70;;;;;;;8.46;78.18;101443.72;4988431;28;20476;-85
2023/12/20 08:45:24;;;;;;;12.38;7.57;;;;;;;8.21;78.59;101407.16;4985377;28;20504;-84
2023/12/20 08:47:50;;;;;;;11.70;7.40;;;;;;;8.59;78.06;101462.84;4966259;28;20031;-84
2023/12/20 08:50:16;;;;;;;11.70;7.32;;;;;;;8.70;78.25;101469.72;4986363;28;20035;-84
2023/12/20 08:52:42;;;;;;;12.32;7.25;;;;;;;8.48;79.28;101442.13;4987008;28;20269;-81
2023/12/20 08:55:08;;;;;;;11.00;7.47;;;;;;;8.66;78.60;101452.09;4973245;28;20022;-82
2023/12/20 08:57:33;;;;;;;12.32;7.35;;;;;;;8.68;78.87;101434.91;4978641;28;20039;-82
2023/12/20 08:59:59;;;;;;;11.65;7.50;;;;;;;8.54;78.94;101410.44;4986985;28;20046;-81
2023/12/20 09:02:25;;;;;;;12.63;7.20;;;;;;;8.76;78.75;101431.13;4984235;28;20501;-81
2023/12/20 09:04:51;;;;;;;11.77;7.10;;;;;;;8.56;79.01;101401.94;4976726;28;20037;-82
2023/12/20 09:07:27;;;;;;;13.18;7.30;;;;;;;8.77;79.15;101414.72;4986310;28;20062;-82
2023/12/20 09:09:53;;;;;;;10.73;7.07;;;;;;;8.80;78.84;101411.41;4985785;28;20029;-82
2023/12/20 09:12:19;;;;;;;11.32;7.15;;;;;;;8.65;78.85;101386.09;4989999;28;20031;-81
2023/12/20 09:14:46;;;;;;;12.38;6.75;;;;;;;8.66;78.97;101381.81;4983745;28;20490;-84
2023/12/20 09:17:12;;;;;;;11.90;7.32;;;;;;;8.85;78.77;101417.88;4984268;28;20034;-83
2023/12/20 09:19:38;;;;;;;10.70;6.72;;;;;;;8.66;79.54;101369.69;4979576;28;20035;-82
2023/12/20 09:22:05;;;;;;;11.70;7.10;;;;;;;8.80;79.04;101398.41;4983772;28;20038;-83
2023/12/20 09:24:31;;;;;;;11.60;6.88;;;;;;;8.83;78.82;101396.03;4971444;28;20478;-82
2023/12/20 09:26:56;;;;;;;11.70;7.22;;;;;;;8.79;79.69;101383.59;4981982;28;20046;-82
2023/12/20 09:29:23;;;;;;;10.35;7.13;;;;;;;8.80;79.84;101387.97;4986894;28;20046;-83
2023/12/20 09:31:49;;;;;;;10.88;6.95;;;;;;;8.72;79.88;101364.00;4984039;28;20035;-82
2023/12/20 09:34:16;;;;;;;10.25;6.70;;;;;;;8.81;79.82;101369.88;4975434;28;20039;-83
2023/12/20 09:36:46;;;;;;;11.30;7.30;;;;;;;8.72;80.50;101343.16;4985640;28;20122;-81
2023/12/20 09:39:20;;;;;;;11.85;7.35;;;;;;;8.77;80.88;101353.13;4979912;28;20568;-85
2023/12/20 09:41:57;;;;;;;10.25;6.57;;;;;;;8.69;81.08;101338.66;4982222;28;20038;-82
2023/12/20 09:44:23;;;;;;;10.73;7.18;;;;;;;8.76;81.80;101337.38;4982637;28;20040;-84
2023/12/20 09:46:50;;;;;;;11.95;7.20;;;;;;;8.93;82.10;101357.72;4982134;28;20446;-84
2023/12/20 09:49:20;;;;;;;11.07;6.97;;;;;;;8.86;81.82;101332.03;4985406;28;20112;-82
2023/12/20 09:51:47;;;;;;;13.95;7.95;;;;;;;8.95;82.21;101342.16;4985750;28;20580;-85
2023/12/20 09:54:17;;;;;;;10.40;6.95;;;;;;;9.07;82.21;101353.44;4986418;28;20033;-83
2023/12/20 09:56:43;;;;;;;13.20;7.43;;;;;;;8.96;83.13;101318.84;4992811;28;20173;-85
2023/12/20 09:59:09;;;;;;;14.85;7.18;;;;;;;8.98;82.85;101312.84;4994280;28;20033;-84
2023/12/20 10:01:36;;;;;;;16.13;8.15;;;;;;;9.15;83.92;101334.03;4988843;28;20514;-84
2023/12/20 10:04:06;;;;;;;18.98;7.88;;;;;;;9.15;84.36;101318.41;4975477;28;20511;-82
2023/12/20 10:06:32;;;;;;;24.17;8.32;;;;;;;9.21;84.70;101322.22;4979870;28;20062;-82
2023/12/20 10:08:58;;;;;;;24.20;8.57;;;;;;;9.21;85.09;101327.44;4980872;28;20791;-84
2023/12/20 10:11:25;;;;;;;30.50;9.65;;;;;;;9.03;85.85;101291.50;4980802;28;21136;-82
2023/12/20 10:13:50;;;;;;;25.30;9.52;;;;;;;8.96;86.04;101260.63;4975306;28;20035;-84
2023/12/20 10:16:16;;;;;;;26.10;9.73;;;;;;;9.28;86.19;101314.03;4980305;28;20077;-84
2023/12/20 10:18:42;;;;;;;20.33;8.90;;;;;;;9.26;86.10;101305.22;4987950;28;20030;-83
2023/12/20 10:21:11;;;;;;;30.52;9.25;;;;;;;8.99;86.61;101247.81;4979727;28;20026;-83
2023/12/20 10:23:39;;;;;;;24.95;9.13;;;;;;;9.35;87.14;101298.00;4978644;28;20421;-83
2023/12/20 10:26:04;;;;;;;20.85;8.90;;;;;;;9.36;85.32;101297.22;4979955;28;20114;-83
2023/12/20 10:28:34;;;;;;;26.08;9.93;;;;;;;9.21;86.17;101258.00;4981995;28;20109;-84
2023/12/20 10:31:00;;;;;;;22.77;9.07;;;;;;;9.15;87.29;101245.44;4983537;28;20174;-84
2023/12/20 10:33:26;;;;;;;23.98;9.93;;;;;;;9.21;85.54;101255.41;4988894;28;20050;-83
2023/12/20 10:35:53;;;;;;;20.30;9.25;;;;;;;9.32;86.03;101270.03;4982072;28;20430;-85
2023/12/20 10:38:19;;;;;;;25.77;9.38;;;;;;;9.19;86.63;101228.31;4988361;28;20559;-84
2023/12/20 10:40:49;;;;;;;19.55;9.52;;;;;;;9.30;86.09;101247.28;4991443;28;20034;-85
2023/12/20 10:43:15;;;;;;;23.88;8.85;;;;;;;9.37;86.82;101252.97;4991962;28;20528;-84
2023/12/20 10:45:41;;;;;;;;;;;;;;;9.45;85.77;101253.50;4981073;28;20037;-84
2023/12/20 10:48:07;;;;;;;14.98;8.32;;;;;;;9.12;86.48;101194.81;4989751;28;19945;-84
2023/12/20 10:50:39;;;;;;;23.45;9.70;;;;;;;9.19;86.25;101196.16;4987917;28;20050;-84
2023/12/20 10:53:06;;;;;;;18.15;8.65;;;;;;;9.05;87.75;101166.56;4973676;28;20027;-85
2023/12/20 10:55:33;;;;;;;19.48;8.98;;;;;;;9.41;87.55;101220.22;4985166;28;20502;-84
2023/12/20 10:58:02;;;;;;;;;;;;;;;9.53;86.05;101227.94;4978295;28;20035;-84
2023/12/20 11:00:30;;;;;;;20.98;9.65;;;;;;;9.52;88.06;101228.75;4974234;28;19914;-83
2023/12/20 11:03:00;;;;;;;23.27;11.38;;;;;;;9.45;86.41;101224.84;4976202;28;20022;-85
2023/12/20 11:05:51;;;;;;;19.17;10.73;;;;;;;9.49;87.35;101220.72;4991464;28;20101;-84
2023/12/20 11:08:41;;;;;;;21.75;10.88;;;;;;;9.51;86.45;101219.13;4973717;28;20019;-84
2023/12/20 11:11:27;;;;;;;23.15;12.25;;;;;;;9.34;87.14;101178.94;4985881;28;20046;-84
2023/12/20 11:14:05;;;;;;;20.52;11.35;;;;;;;9.45;86.69;101206.59;4991158;28;20034;-83
2023/12/20 11:16:33;;;;;;;24.38;11.95;;;;;;;9.29;86.41;101176.03;4986512;28;20066;-84
2023/12/20 11:19:05;;;;;;;23.00;11.82;;;;;;;9.48;87.50;101209.41;4976708;28;20041;-83
2023/12/20 11:21:31;;;;;;;24.10;12.73;;;;;;;9.27;86.96;101174.09;4983994;28;20402;-82
2023/12/20 11:23:56;;;;;;;20.13;11.75;;;;;;;9.49;86.50;101212.91;4979940;28;20034;-82
2023/12/20 11:26:26;;;;;;;21.50;11.98;;;;;;;9.41;86.22;101194.16;4993045;28;20149;-82
2023/12/20 11:28:52;;;;;;;20.85;12.07;;;;;;;9.17;86.08;101151.75;4988782;28;20454;-83